createdAt,value
2022-07-28T00:00:37.964Z,15.00
2022-07-28T00:03:04.631Z,15.01
2022-07-28T00:05:32.440Z,14.97
2022-07-28T00:08:00.818Z,14.94
2022-07-28T00:10:27.182Z,14.96
2022-07-28T00:12:53.512Z,14.89
2022-07-28T00:15:19.851Z,14.82
2022-07-28T00:17:46.196Z,14.81
2022-07-28T00:20:12.559Z,14.82
2022-07-28T00:22:42.560Z,14.76
2022-07-28T00:25:09.176Z,14.77
2022-07-28T00:27:35.518Z,14.71
2022-07-28T00:30:02.172Z,14.70
2022-07-28T00:32:28.512Z,14.68
2022-07-28T00:34:56.617Z,14.67
2022-07-28T00:37:23.195Z,14.65
2022-07-28T00:39:50.938Z,14.61
2022-07-28T00:42:17.543Z,14.57
2022-07-28T00:44:43.879Z,14.47
2022-07-28T00:47:10.230Z,14.48
2022-07-28T00:49:36.568Z,14.44
2022-07-28T00:52:03.932Z,14.42
2022-07-28T00:54:32.076Z,14.40
2022-07-28T00:56:59.806Z,14.39
2022-07-28T00:59:26.126Z,14.35
2022-07-28T01:01:53.480Z,14.33
2022-07-28T01:04:21.677Z,14.31
2022-07-28T01:06:54.966Z,14.29
2022-07-28T01:09:29.575Z,14.27
2022-07-28T01:12:01.217Z,14.24
2022-07-28T01:14:32.172Z,14.24
2022-07-28T01:17:01.840Z,14.24
2022-07-28T01:19:34.069Z,14.23
2022-07-28T01:22:01.578Z,14.17
2022-07-28T01:24:31.427Z,14.16
2022-07-28T01:27:00.835Z,14.16
2022-07-28T01:29:56.627Z,14.15
2022-07-28T01:32:25.691Z,14.13
2022-07-28T01:34:54.074Z,14.09
2022-07-28T01:37:24.929Z,14.05
2022-07-28T01:39:52.432Z,13.99
2022-07-28T01:42:21.000Z,13.95
2022-07-28T01:44:48.564Z,13.96
2022-07-28T01:47:16.099Z,13.93
2022-07-28T01:49:45.180Z,13.91
2022-07-28T01:52:11.641Z,13.88
2022-07-28T01:54:40.203Z,13.87
2022-07-28T01:57:07.856Z,13.84
2022-07-28T01:59:35.713Z,13.81
2022-07-28T02:02:02.516Z,13.76
2022-07-28T02:04:30.992Z,13.77
2022-07-28T02:06:59.400Z,13.71
2022-07-28T02:09:26.501Z,13.67
2022-07-28T02:11:53.994Z,13.65
2022-07-28T02:14:21.853Z,13.61
2022-07-28T02:16:48.871Z,13.59
2022-07-28T02:19:16.294Z,13.59
2022-07-28T02:21:44.395Z,13.54
2022-07-28T02:24:12.368Z,13.53
2022-07-28T02:26:41.909Z,13.51
2022-07-28T02:29:27.378Z,13.50
2022-07-28T02:32:01.107Z,13.44
2022-07-28T02:34:28.660Z,13.43
2022-07-28T02:36:57.562Z,13.40
2022-07-28T02:39:26.709Z,13.35
2022-07-28T02:41:57.977Z,13.29
2022-07-28T02:44:26.999Z,13.30
2022-07-28T02:46:54.972Z,13.25
2022-07-28T02:49:23.280Z,13.22
2022-07-28T02:51:50.988Z,13.21
2022-07-28T02:54:17.802Z,13.17
2022-07-28T02:56:53.123Z,13.13
2022-07-28T02:59:21.054Z,13.09
2022-07-28T03:01:48.236Z,13.01
2022-07-28T03:04:15.326Z,13.03
2022-07-28T03:06:42.032Z,13.00
2022-07-28T03:09:08.434Z,12.99
2022-07-28T03:11:35.106Z,12.96
2022-07-28T03:14:02.793Z,12.95
2022-07-28T03:16:29.157Z,12.94
2022-07-28T03:18:55.921Z,12.89
2022-07-28T03:21:22.257Z,12.90
2022-07-28T03:23:50.458Z,12.86
2022-07-28T03:26:19.310Z,12.84
2022-07-28T03:28:46.234Z,12.79
2022-07-28T03:31:15.322Z,12.76
2022-07-28T03:33:41.918Z,12.72
2022-07-28T03:36:12.038Z,12.68
2022-07-28T03:38:40.890Z,12.66
2022-07-28T03:41:09.193Z,12.67
2022-07-28T03:43:35.812Z,12.65
2022-07-28T03:46:02.480Z,12.63
2022-07-28T03:48:30.374Z,12.65
2022-07-28T03:50:56.964Z,12.63
2022-07-28T03:53:24.831Z,12.60
2022-07-28T03:55:51.346Z,12.55
2022-07-28T03:58:17.821Z,12.57
2022-07-28T04:00:44.231Z,12.55
2022-07-28T04:03:35.337Z,12.52
2022-07-28T04:05:58.257Z,12.50
2022-07-28T04:08:24.630Z,12.50
2022-07-28T04:10:50.995Z,12.51
2022-07-28T04:13:17.303Z,12.49
2022-07-28T04:15:43.653Z,12.51
2022-07-28T04:18:09.985Z,12.50
2022-07-28T04:20:36.323Z,12.51
2022-07-28T04:23:04.048Z,12.52
2022-07-28T04:25:30.374Z,12.54
2022-07-28T04:27:56.741Z,12.56
2022-07-28T04:30:23.716Z,12.62
2022-07-28T04:32:50.820Z,12.63
2022-07-28T04:35:17.835Z,12.60
2022-07-28T04:37:44.729Z,12.66
2022-07-28T04:40:13.540Z,12.60
2022-07-28T04:42:40.377Z,12.65
2022-07-28T04:45:07.535Z,12.67
2022-07-28T04:47:34.248Z,12.68
2022-07-28T04:50:00.725Z,12.70
2022-07-28T04:52:27.117Z,12.70
2022-07-28T04:54:53.733Z,12.73
2022-07-28T04:57:21.428Z,12.77
2022-07-28T04:59:50.210Z,12.80
2022-07-28T05:02:16.542Z,12.83
2022-07-28T05:04:43.258Z,12.82
2022-07-28T05:07:12.773Z,12.81
2022-07-28T05:09:39.427Z,12.84
2022-07-28T05:12:06.009Z,12.93
2022-07-28T05:14:33.706Z,12.93
2022-07-28T05:17:00.118Z,12.97
2022-07-28T05:19:26.563Z,13.03
2022-07-28T05:21:52.901Z,13.12
2022-07-28T05:24:19.237Z,13.21
2022-07-28T05:26:45.574Z,13.30
2022-07-28T05:29:11.911Z,13.34
2022-07-28T05:31:39.648Z,13.43
2022-07-28T05:34:06.033Z,13.46
2022-07-28T05:36:32.500Z,13.51
2022-07-28T05:38:58.819Z,13.53
2022-07-28T05:41:25.170Z,13.62
2022-07-28T05:43:51.498Z,13.68
2022-07-28T05:46:17.917Z,13.71
2022-07-28T05:48:45.740Z,13.82
2022-07-28T05:51:12.127Z,13.94
2022-07-28T05:53:38.458Z,13.98
2022-07-28T05:56:05.104Z,14.04
2022-07-28T05:58:31.410Z,14.16
2022-07-28T06:00:58.427Z,14.22
2022-07-28T06:03:24.826Z,14.30
2022-07-28T06:06:14.147Z,14.32
2022-07-28T06:08:40.108Z,14.32
2022-07-28T06:11:06.533Z,14.32
2022-07-28T06:13:33.011Z,14.40
2022-07-28T06:15:59.516Z,14.45
2022-07-28T06:18:25.904Z,14.48
2022-07-28T06:20:53.629Z,14.52
2022-07-28T06:23:19.960Z,14.51
2022-07-28T06:25:46.344Z,14.49
2022-07-28T06:28:12.672Z,14.55
2022-07-28T06:30:39.031Z,14.63
2022-07-28T06:33:05.352Z,14.67
2022-07-28T06:35:31.739Z,14.73
2022-07-28T06:38:13.674Z,14.74
2022-07-28T06:40:40.060Z,14.75
2022-07-28T06:43:06.395Z,14.84
2022-07-28T06:45:32.902Z,14.93
2022-07-28T06:47:59.300Z,15.00
2022-07-28T06:50:27.165Z,15.03
2022-07-28T06:52:53.844Z,15.10
2022-07-28T06:55:21.628Z,15.12
2022-07-28T06:57:49.033Z,15.17
2022-07-28T07:00:15.645Z,15.17
2022-07-28T07:02:42.273Z,15.29
2022-07-28T07:05:09.319Z,15.27
2022-07-28T07:07:38.543Z,15.28
2022-07-28T07:10:09.263Z,15.37
2022-07-28T07:12:36.985Z,15.53
2022-07-28T07:15:03.993Z,15.69
2022-07-28T07:17:30.315Z,15.85
2022-07-28T07:19:56.747Z,15.96
2022-07-28T07:22:23.098Z,16.10
2022-07-28T07:24:53.588Z,16.22
2022-07-28T07:27:22.812Z,16.19
2022-07-28T07:29:50.695Z,16.15
2022-07-28T07:32:17.047Z,16.11
2022-07-28T07:34:43.393Z,16.15
2022-07-28T07:37:09.727Z,16.28
2022-07-28T07:39:36.035Z,16.47
2022-07-28T07:42:02.356Z,16.64
2022-07-28T07:44:28.697Z,16.73
2022-07-28T07:46:56.411Z,16.80
2022-07-28T07:49:22.837Z,16.84
2022-07-28T07:51:49.243Z,16.89
2022-07-28T07:54:15.908Z,17.01
2022-07-28T07:56:42.493Z,17.09
2022-07-28T07:59:08.819Z,17.18
2022-07-28T08:01:35.179Z,17.32
2022-07-28T08:04:08.363Z,17.47
2022-07-28T08:06:34.766Z,17.57
2022-07-28T08:09:02.246Z,17.69
2022-07-28T08:11:28.608Z,17.73
2022-07-28T08:13:54.954Z,17.67
2022-07-28T08:16:21.395Z,17.71
2022-07-28T08:18:47.769Z,17.82
2022-07-28T08:21:15.453Z,17.88
2022-07-28T08:23:41.768Z,17.96
2022-07-28T08:26:08.133Z,17.99
2022-07-28T08:28:34.488Z,18.10
2022-07-28T08:31:00.900Z,18.21
2022-07-28T08:33:27.299Z,18.29
2022-07-28T08:35:53.755Z,18.39
2022-07-28T08:38:21.443Z,18.44
2022-07-28T08:40:48.862Z,18.42
2022-07-28T08:43:18.820Z,18.51
2022-07-28T08:45:47.601Z,18.65
2022-07-28T08:48:14.319Z,18.75
2022-07-28T08:50:42.079Z,18.77
2022-07-28T08:53:08.851Z,18.86
2022-07-28T08:55:37.500Z,19.00
2022-07-28T08:58:04.245Z,19.17
2022-07-28T09:00:31.220Z,19.33
2022-07-28T09:02:57.731Z,19.45
2022-07-28T09:05:24.435Z,19.50
2022-07-28T09:07:54.639Z,19.59
2022-07-28T09:10:21.415Z,19.67
2022-07-28T09:12:49.125Z,19.66
2022-07-28T09:15:15.517Z,19.76
2022-07-28T09:17:42.101Z,19.84
2022-07-28T09:20:11.311Z,19.88
2022-07-28T09:22:54.207Z,19.95
2022-07-28T09:25:20.539Z,19.97
2022-07-28T09:27:46.888Z,19.92
2022-07-28T09:30:14.682Z,19.91
2022-07-28T09:32:41.155Z,20.04
2022-07-28T09:35:17.845Z,20.16
2022-07-28T09:37:45.137Z,20.25
2022-07-28T09:40:12.830Z,20.23
2022-07-28T09:42:45.172Z,20.26
2022-07-28T09:45:26.759Z,20.32
2022-07-28T09:48:07.663Z,20.47
2022-07-28T09:50:34.163Z,20.54
2022-07-28T09:53:00.492Z,20.60
2022-07-28T09:55:26.831Z,20.66
2022-07-28T09:57:53.155Z,20.62
2022-07-28T10:00:25.402Z,20.59
2022-07-28T10:02:54.186Z,20.57
2022-07-28T10:05:21.886Z,20.80
2022-07-28T10:07:48.408Z,20.87
2022-07-28T10:10:19.809Z,20.94
2022-07-28T10:12:46.154Z,21.07
2022-07-28T10:15:13.524Z,21.23
2022-07-28T10:17:39.897Z,21.35
2022-07-28T10:20:06.895Z,21.41
2022-07-28T10:22:39.546Z,21.52
2022-07-28T10:25:09.566Z,21.63
2022-07-28T10:27:36.607Z,21.63
2022-07-28T10:30:04.925Z,21.69
2022-07-28T10:32:33.128Z,21.73
2022-07-28T10:35:00.535Z,21.82
2022-07-28T10:37:27.728Z,21.84
2022-07-28T10:39:57.901Z,21.64
2022-07-28T10:42:24.678Z,21.56
2022-07-28T10:44:51.513Z,21.60
2022-07-28T10:47:20.017Z,21.67
2022-07-28T10:49:48.747Z,21.71
2022-07-28T10:52:37.646Z,21.97
2022-07-28T10:55:15.397Z,22.18
2022-07-28T10:58:02.213Z,22.37
2022-07-28T11:00:55.384Z,22.47
2022-07-28T11:03:36.745Z,22.61
2022-07-28T11:06:18.057Z,22.74
2022-07-28T11:08:44.395Z,22.76
2022-07-28T11:11:15.454Z,22.71
2022-07-28T11:13:41.805Z,22.45
2022-07-28T11:16:18.442Z,22.58
2022-07-28T11:18:59.747Z,22.74
2022-07-28T11:21:27.260Z,22.75
2022-07-28T11:23:57.333Z,22.78
2022-07-28T11:26:32.519Z,22.96
2022-07-28T11:29:15.244Z,22.96
2022-07-28T11:32:04.335Z,23.06
2022-07-28T11:34:49.167Z,23.18
2022-07-28T11:37:15.561Z,23.25
2022-07-28T11:39:44.093Z,23.25
2022-07-28T11:42:28.230Z,23.26
2022-07-28T11:44:56.722Z,23.27
2022-07-28T11:47:24.245Z,23.24
2022-07-28T11:50:09.213Z,23.17
2022-07-28T11:52:36.076Z,23.28
2022-07-28T11:55:02.579Z,23.40
2022-07-28T11:57:30.448Z,23.55
2022-07-28T12:00:01.081Z,23.58
2022-07-28T12:02:28.718Z,23.71
2022-07-28T12:04:56.388Z,23.71
2022-07-28T12:07:27.858Z,23.90
2022-07-28T12:09:57.148Z,24.14
2022-07-28T12:12:23.501Z,24.31
2022-07-28T12:14:51.350Z,24.42
2022-07-28T12:17:17.680Z,24.47
2022-07-28T12:19:44.457Z,24.57
2022-07-28T12:22:12.569Z,24.49
2022-07-28T12:24:45.958Z,24.16
2022-07-28T12:27:13.030Z,24.10
2022-07-28T12:29:39.458Z,23.90
2022-07-28T12:32:07.995Z,23.64
2022-07-28T12:34:35.002Z,23.57
2022-07-28T12:37:02.506Z,23.50
2022-07-28T12:39:29.142Z,23.47
2022-07-28T12:42:01.797Z,23.42
2022-07-28T12:44:32.024Z,23.37
2022-07-28T12:46:58.467Z,23.42
2022-07-28T12:49:26.232Z,23.48
2022-07-28T12:51:52.671Z,23.66
2022-07-28T12:54:33.277Z,23.72
2022-07-28T12:56:59.658Z,23.79
2022-07-28T12:59:31.562Z,23.69
2022-07-28T13:01:58.254Z,23.71
2022-07-28T13:04:39.386Z,23.74
2022-07-28T13:07:06.174Z,23.91
2022-07-28T13:09:32.966Z,24.06
2022-07-28T13:12:01.785Z,24.02
2022-07-28T13:14:40.498Z,24.02
2022-07-28T13:17:06.841Z,24.20
2022-07-28T13:19:33.190Z,24.41
2022-07-28T13:22:05.400Z,24.48
2022-07-28T13:24:34.982Z,24.42
2022-07-28T13:27:01.831Z,24.42
2022-07-28T13:29:28.162Z,24.40
2022-07-28T13:31:55.033Z,24.35
2022-07-28T13:34:21.944Z,24.24
2022-07-28T13:36:48.271Z,24.14
2022-07-28T13:39:15.958Z,24.06
2022-07-28T13:41:58.015Z,24.12
2022-07-28T13:44:25.364Z,24.18
2022-07-28T13:46:51.760Z,24.35
2022-07-28T13:49:18.287Z,24.38
2022-07-28T13:51:47.979Z,24.35
2022-07-28T13:54:16.041Z,24.35
2022-07-28T13:56:43.079Z,24.31
2022-07-28T13:59:09.469Z,24.27
2022-07-28T14:01:39.716Z,24.33
2022-07-28T14:04:07.153Z,24.28
2022-07-28T14:06:33.610Z,24.22
2022-07-28T14:08:59.955Z,24.22
2022-07-28T14:11:36.362Z,24.20
2022-07-28T14:14:02.951Z,24.10
2022-07-28T14:16:30.469Z,24.05
2022-07-28T14:18:57.411Z,23.95
2022-07-28T14:21:24.199Z,23.88
2022-07-28T14:23:50.600Z,23.86
2022-07-28T14:26:35.143Z,23.84
2022-07-28T14:29:03.432Z,23.87
2022-07-28T14:31:37.797Z,23.84
2022-07-28T14:34:04.260Z,23.75
2022-07-28T14:36:30.617Z,23.69
2022-07-28T14:38:57.329Z,23.67
2022-07-28T14:41:23.664Z,23.61
2022-07-28T14:43:49.986Z,23.58
2022-07-28T14:46:21.476Z,23.56
2022-07-28T14:48:48.630Z,23.58
2022-07-28T14:51:14.981Z,23.56
2022-07-28T14:53:41.376Z,23.57
2022-07-28T14:56:16.333Z,23.66
2022-07-28T14:58:42.733Z,23.67
2022-07-28T15:01:09.176Z,23.67
2022-07-28T15:03:36.844Z,23.71
2022-07-28T15:06:03.406Z,23.79
2022-07-28T15:08:29.751Z,23.93
2022-07-28T15:10:56.113Z,23.95
2022-07-28T15:13:22.437Z,24.10
2022-07-28T15:15:48.860Z,24.11
2022-07-28T15:18:15.241Z,24.16
2022-07-28T15:20:42.950Z,24.14
2022-07-28T15:23:09.263Z,24.05
2022-07-28T15:25:35.594Z,24.03
2022-07-28T15:28:01.943Z,24.01
2022-07-28T15:30:28.297Z,23.89
2022-07-28T15:32:57.121Z,24.00
2022-07-28T15:35:23.988Z,24.17
2022-07-28T15:37:51.675Z,24.27
2022-07-28T15:40:18.043Z,24.38
2022-07-28T15:42:44.364Z,24.50
2022-07-28T15:45:10.996Z,24.58
2022-07-28T15:47:37.368Z,24.61
2022-07-28T15:50:04.020Z,24.49
2022-07-28T15:52:30.365Z,24.38
2022-07-28T15:54:58.041Z,24.39
2022-07-28T15:57:24.439Z,24.31
2022-07-28T15:59:51.020Z,24.23
2022-07-28T16:02:17.762Z,24.16
2022-07-28T16:04:53.198Z,24.07
2022-07-28T16:07:22.421Z,24.01
2022-07-28T16:09:49.499Z,23.95
2022-07-28T16:12:17.385Z,23.98
2022-07-28T16:14:43.718Z,23.93
2022-07-28T16:17:10.920Z,23.66
2022-07-28T16:19:52.663Z,23.72
2022-07-28T16:22:19.485Z,23.71
2022-07-28T16:24:46.246Z,23.61
2022-07-28T16:27:12.673Z,23.57
2022-07-28T16:29:40.346Z,23.47
2022-07-28T16:32:06.756Z,23.43
2022-07-28T16:34:33.101Z,23.39
2022-07-28T16:36:59.437Z,23.47
2022-07-28T16:39:25.791Z,23.57
2022-07-28T16:41:52.125Z,23.65
2022-07-28T16:44:19.539Z,23.71
2022-07-28T16:46:47.372Z,23.73
2022-07-28T16:49:13.982Z,23.75
2022-07-28T16:51:40.333Z,23.78
2022-07-28T16:54:06.656Z,23.74
2022-07-28T16:56:33.021Z,23.71
2022-07-28T16:58:59.341Z,23.65
2022-07-28T17:01:25.979Z,23.58
2022-07-28T17:03:53.681Z,23.52
2022-07-28T17:06:20.067Z,23.38
2022-07-28T17:08:46.386Z,23.35
2022-07-28T17:11:12.724Z,23.31
2022-07-28T17:13:43.466Z,23.28
2022-07-28T17:16:12.016Z,23.22
2022-07-28T17:18:38.399Z,23.22
2022-07-28T17:21:06.128Z,23.18
2022-07-28T17:23:32.571Z,23.16
2022-07-28T17:28:49.497Z,22.97
2022-07-28T17:31:15.870Z,22.92
2022-07-28T17:33:42.266Z,22.85
2022-07-28T17:36:09.947Z,22.83
2022-07-28T17:38:36.285Z,22.73
2022-07-28T17:41:02.830Z,22.68
2022-07-28T17:43:29.151Z,22.67
2022-07-28T17:45:55.548Z,22.67
2022-07-28T17:48:21.950Z,22.56
2022-07-28T17:50:48.331Z,22.61
2022-07-28T17:53:16.035Z,22.59
2022-07-28T17:55:59.911Z,22.58
2022-07-28T17:58:28.576Z,22.59
2022-07-28T18:00:55.840Z,22.49
2022-07-28T18:03:22.879Z,22.47
2022-07-28T18:05:49.795Z,22.42
2022-07-28T18:08:17.615Z,22.38
2022-07-28T18:10:44.389Z,22.33
2022-07-28T18:13:10.696Z,22.32
2022-07-28T18:15:37.117Z,22.30
2022-07-28T18:18:03.795Z,22.26
2022-07-28T18:20:30.639Z,22.24
2022-07-28T18:22:57.041Z,22.20
2022-07-28T18:25:25.207Z,22.09
2022-07-28T18:27:51.553Z,22.12
2022-07-28T18:30:18.206Z,22.11
2022-07-28T18:32:44.570Z,22.03
2022-07-28T18:35:11.266Z,21.96
2022-07-28T18:37:40.055Z,21.96
2022-07-28T18:40:10.790Z,21.87
2022-07-28T18:42:38.468Z,21.86
2022-07-28T18:45:05.450Z,21.83
2022-07-28T18:47:31.846Z,21.76
2022-07-28T18:49:58.787Z,21.71
2022-07-28T18:52:25.181Z,21.70
2022-07-28T18:54:51.913Z,21.67
2022-07-28T18:57:18.389Z,21.61
2022-07-28T18:59:51.681Z,21.63
2022-07-28T19:02:18.633Z,21.57
2022-07-28T19:04:45.595Z,21.51
2022-07-28T19:07:11.949Z,21.47
2022-07-28T19:09:38.828Z,21.44
2022-07-28T19:12:05.970Z,21.44
2022-07-28T19:14:32.329Z,21.38
2022-07-28T19:17:00.407Z,21.31
2022-07-28T19:19:26.729Z,21.33
2022-07-28T19:21:53.036Z,21.24
2022-07-28T19:24:19.945Z,21.20
2022-07-28T19:26:47.560Z,21.17
2022-07-28T19:29:13.902Z,21.14
2022-07-28T19:31:40.262Z,21.08
2022-07-28T19:34:08.113Z,21.02
2022-07-28T19:36:36.070Z,20.97
2022-07-28T19:39:02.420Z,20.93
2022-07-28T19:41:28.741Z,20.91
2022-07-28T19:43:55.078Z,20.86
2022-07-28T19:46:21.463Z,20.85
2022-07-28T19:48:47.864Z,20.78
2022-07-28T19:51:15.697Z,20.75
2022-07-28T19:53:42.121Z,20.72
2022-07-28T19:56:09.238Z,20.67
2022-07-28T19:58:36.129Z,20.64
2022-07-28T20:01:03.531Z,20.64
2022-07-28T20:04:02.614Z,20.63
2022-07-28T20:06:17.524Z,20.51
2022-07-28T20:08:51.496Z,20.55
2022-07-28T20:11:17.933Z,20.53
2022-07-28T20:13:44.259Z,20.49
2022-07-28T20:16:10.579Z,20.45
2022-07-28T20:18:36.917Z,20.45
2022-07-28T20:21:03.347Z,20.44
2022-07-28T20:23:31.016Z,20.40
2022-07-28T20:25:57.342Z,20.39
2022-07-28T20:28:23.728Z,20.38
2022-07-28T20:30:50.135Z,20.37
2022-07-28T20:33:16.642Z,20.33
2022-07-28T20:35:43.021Z,20.27
2022-07-28T20:38:09.341Z,20.24
2022-07-28T20:40:37.038Z,20.23
2022-07-28T20:43:03.374Z,20.18
2022-07-28T20:45:29.725Z,20.14
2022-07-28T20:47:56.037Z,20.11
2022-07-28T20:50:22.365Z,20.06
2022-07-28T20:52:48.735Z,20.00
2022-07-28T20:55:15.092Z,19.93
2022-07-28T20:57:42.773Z,19.90
2022-07-28T21:00:20.329Z,19.87
2022-07-28T21:02:46.749Z,19.85
2022-07-28T21:05:25.674Z,19.85
2022-07-28T21:08:05.312Z,19.85
2022-07-28T21:10:33.134Z,19.83
2022-07-28T21:13:00.841Z,19.81
2022-07-28T21:15:27.261Z,19.83
2022-07-28T21:17:53.591Z,19.82
2022-07-28T21:20:20.071Z,19.81
2022-07-28T21:22:46.428Z,19.79
2022-07-28T21:25:12.784Z,19.74
2022-07-28T21:27:39.106Z,19.74
2022-07-28T21:30:07.494Z,19.71
2022-07-28T21:32:33.818Z,19.72
2022-07-28T21:35:00.147Z,19.71
2022-07-28T21:37:26.488Z,19.69
2022-07-28T21:39:52.811Z,19.70
2022-07-28T21:42:19.151Z,19.68
2022-07-28T21:44:45.472Z,19.66
2022-07-28T21:47:13.169Z,19.60
2022-07-28T21:49:39.518Z,19.60
2022-07-28T21:52:05.863Z,19.58
2022-07-28T21:54:32.219Z,19.60
2022-07-28T21:56:58.559Z,19.59
2022-07-28T21:59:24.916Z,19.55
2022-07-28T22:01:51.308Z,19.56
2022-07-28T22:04:19.620Z,19.50
2022-07-28T22:06:46.897Z,19.51
2022-07-28T22:09:13.471Z,19.48
2022-07-28T22:11:39.797Z,19.43
2022-07-28T22:14:06.114Z,19.47
2022-07-28T22:16:32.504Z,19.44
2022-07-28T22:18:58.880Z,19.43
2022-07-28T22:21:26.573Z,19.39
2022-07-28T22:23:52.922Z,19.37
2022-07-28T22:26:19.304Z,19.34
2022-07-28T22:28:45.661Z,19.27
2022-07-28T22:31:12.003Z,19.28
2022-07-28T22:33:38.749Z,19.29
2022-07-28T22:36:05.366Z,19.31
2022-07-28T22:38:33.039Z,19.31
2022-07-28T22:40:59.404Z,19.29
2022-07-28T22:43:25.780Z,19.26
2022-07-28T22:45:52.130Z,19.30
2022-07-28T22:48:18.688Z,19.27
2022-07-28T22:50:45.021Z,19.28
2022-07-28T22:53:11.387Z,19.24
2022-07-28T22:58:23.031Z,19.21
2022-07-28T23:00:49.499Z,19.20
2022-07-28T23:03:17.954Z,19.15
2022-07-28T23:05:44.958Z,19.18
2022-07-28T23:08:11.476Z,19.18
2022-07-28T23:10:40.762Z,19.22
2022-07-28T23:13:07.162Z,19.23
2022-07-28T23:15:40.884Z,19.27
2022-07-28T23:18:08.271Z,19.31
2022-07-28T23:20:34.631Z,19.32
2022-07-28T23:23:01.024Z,19.33
2022-07-28T23:25:27.471Z,19.34
2022-07-28T23:27:55.199Z,19.28
2022-07-28T23:30:21.596Z,19.41
2022-07-28T23:32:47.987Z,19.36
2022-07-28T23:35:14.366Z,19.37
2022-07-28T23:37:40.740Z,19.43
2022-07-28T23:40:07.801Z,19.38
2022-07-28T23:42:34.180Z,19.31
2022-07-28T23:45:03.957Z,19.22
2022-07-28T23:47:30.377Z,19.10
2022-07-28T23:49:56.751Z,18.83
2022-07-28T23:52:23.111Z,18.75
2022-07-28T23:54:49.471Z,18.72
2022-07-28T23:57:15.849Z,18.71
2022-07-28T23:59:42.227Z,18.68
